Villa Montes, Bolivia
Current Conditions -  °F | °C
As of 2:00 PM on Thursday 30 Oct 2014 (Local Time) from SLYA Reporting Station
Scattered Clouds Scattered Clouds  
Wind Chill: 88°   Ceiling: Unl
Heat Index: 94°   Visibility: 6mi
Dew Point: 72°   Wind: 12mph
Humidity: 58%   Direction: 180°S
Pressure: 29.74"   Gusts: NA
Location:  21.27°S, 63.5°W
Report Text: SLYA 301800Z 18010KT 9999 SCT025 SCT070 31/22 Q1007
Loading
Personal Weather Stations






























Interactive Weather Map
Tropical Storm Tracking
New forecast layout! Learn more

10-Day Weather Forecast

Advertisements
Track Severe Weather on mobile